^^
WestSenecaWeather Station Historical Data
 
Daily Summary for August 17, 2019 Units:  English    Metric   Both
Daily Weekly Monthly Yearly Custom
  Current: High: Low: Average:
Temperature: 74 °F 79.7 °F 61.9 °F 69.8 °F
Dew Point: 69.6 °F 72.6 °F 59.6 °F 65.7 °F
Humidity: 86% 96% 72% 87%
Wind Speed: 2mph 15mph 0mph 1.6mph
Wind Gust: 5mph 18mph - -
WindNNW - - WSW
Pressure: 29.88 in 29.93 in 29.86 in -
Precipitation: 0.65 in      
Historical Graphs
 
 
Tabular Data for August 17, 2019
Time Temperature Dew Point Pressure Wind Wind Speed Wind Gust Humidity Rainfall Rate (Hourly) solar
00:00 68.2 °F 64.8 °F 29.93 in Calm     89% 0 in WeatherDisplay:10.37 W/m2
00:05 67.9 °F 64.5 °F 29.93 in Calm     89% 0 in WeatherDisplay:10.37 W/m2
00:10 67.7 °F 64.3 °F 29.93 in Calm   2 mph 89% 0 in WeatherDisplay:10.37 W/m2
00:15 67.5 °F 64.1 °F 29.93 in Calm     89% 0 in WeatherDisplay:10.37 W/m2
00:20 67.3 °F 63.9 °F 29.93 in Calm     89% 0 in WeatherDisplay:10.37 W/m2
00:25 67.1 °F 63.7 °F 29.93 in Calm     89% 0 in WeatherDisplay:10.37 W/m2
00:30 66.9 °F 63.9 °F 29.93 in Calm     90% 0 in WeatherDisplay:10.37 W/m2
00:35 66.7 °F 63.7 °F 29.93 in Calm     90% 0 in WeatherDisplay:10.37 W/m2
00:40 66.5 °F 63.5 °F 29.93 in Calm     90% 0 in WeatherDisplay:10.37 W/m2
00:45 66.2 °F 63.2 °F 29.93 in Calm     90% 0 in WeatherDisplay:10.37 W/m2
00:50 66 °F 63 °F 29.93 in Calm     90% 0 in WeatherDisplay:10.37 W/m2
00:55 65.8 °F 62.8 °F 29.93 in Calm     90% 0 in WeatherDisplay:10.37 W/m2
01:00 65.7 °F 63 °F 29.93 in Calm     91% 0 in WeatherDisplay:10.37 W/m2
01:05 65.6 °F 62.9 °F 29.93 in Calm     91% 0 in WeatherDisplay:10.37 W/m2
01:10 65.4 °F 62.7 °F 29.93 in Calm     91% 0 in WeatherDisplay:10.37 W/m2
01:15 65.2 °F 62.2 °F 29.93 in Calm     90% 0 in WeatherDisplay:10.37 W/m2
01:20 65 °F 62.3 °F 29.93 in Calm     91% 0 in WeatherDisplay:10.37 W/m2
01:25 64.9 °F 62.2 °F 29.93 in Calm     91% 0 in WeatherDisplay:10.37 W/m2
01:30 64.8 °F 62.1 °F 29.93 in Calm   1 mph 91% 0 in WeatherDisplay:10.37 W/m2
01:35 64.8 °F 62.1 °F 29.93 in Calm   1 mph 91% 0 in WeatherDisplay:10.37 W/m2
01:40 64.8 °F 62.1 °F 29.93 in Calm   2 mph 91% 0 in WeatherDisplay:10.37 W/m2
01:45 64.7 °F 62 °F 29.93 in Calm     91% 0 in WeatherDisplay:10.37 W/m2
01:50 64.6 °F 61.6 °F 29.93 in Calm     90% 0 in WeatherDisplay:10.37 W/m2
01:55 64.5 °F 61.5 °F 29.93 in Calm     90% 0 in WeatherDisplay:10.37 W/m2
02:00 64.4 °F 61.7 °F 29.93 in Calm   1 mph 91% 0 in WeatherDisplay:10.37 W/m2
02:05 64.3 °F 61.6 °F 29.93 in Calm   1 mph 91% 0 in WeatherDisplay:10.37 W/m2
02:10 64.1 °F 61.4 °F 29.93 in Calm     91% 0 in WeatherDisplay:10.37 W/m2
02:15 64 °F 61.3 °F 29.93 in Calm     91% 0 in WeatherDisplay:10.37 W/m2
02:20 63.9 °F 61.2 °F 29.93 in Calm     91% 0 in WeatherDisplay:10.37 W/m2
02:25 63.8 °F 61.1 °F 29.93 in Calm     91% 0 in WeatherDisplay:10.37 W/m2
02:30 63.7 °F 61 °F 29.93 in Calm     91% 0 in WeatherDisplay:10.37 W/m2
02:35 63.6 °F 60.9 °F 29.92 in Calm     91% 0 in WeatherDisplay:10.37 W/m2
02:40 63.6 °F 60.9 °F 29.93 in Calm     91% 0 in WeatherDisplay:10.37 W/m2
02:45 63.5 °F 60.8 °F 29.93 in Calm     91% 0 in WeatherDisplay:10.37 W/m2
02:50 63.4 °F 60.7 °F 29.93 in Calm     91% 0 in WeatherDisplay:10.37 W/m2
02:55 63.3 °F 60.6 °F 29.93 in Calm     91% 0 in WeatherDisplay:10.37 W/m2
03:00 63.1 °F 60.7 °F 29.93 in Calm     92% 0 in WeatherDisplay:10.37 W/m2
03:05 63 °F 60.6 °F 29.93 in Calm     92% 0 in WeatherDisplay:10.37 W/m2
03:10 62.9 °F 60.5 °F 29.93 in Calm     92% 0 in WeatherDisplay:10.37 W/m2
03:15 62.8 °F 60.4 °F 29.93 in Calm     92% 0 in WeatherDisplay:10.37 W/m2
03:20 62.7 °F 60.3 °F 29.93 in Calm     92% 0 in WeatherDisplay:10.37 W/m2
03:25 62.6 °F 60.2 °F 29.93 in Calm     92% 0 in WeatherDisplay:10.37 W/m2
03:30 62.6 °F 60.2 °F 29.93 in Calm     92% 0 in WeatherDisplay:10.37 W/m2
03:35 62.6 °F 60.2 °F 29.93 in Calm     92% 0 in WeatherDisplay:10.37 W/m2
03:40 62.6 °F 60.2 °F 29.93 in Calm     92% 0 in WeatherDisplay:10.37 W/m2
03:45 62.5 °F 60.1 °F 29.92 in Calm     92% 0 in WeatherDisplay:10.37 W/m2
03:50 62.5 °F 60.1 °F 29.92 in Calm     92% 0 in WeatherDisplay:10.37 W/m2
03:55 62.4 °F 60 °F 29.92 in Calm     92% 0 in WeatherDisplay:10.37 W/m2
04:00 62.3 °F 60 °F 29.92 in Calm     92% 0 in WeatherDisplay:10.37 W/m2
04:05 62.3 °F 59.9 °F 29.92 in Calm     92% 0 in WeatherDisplay:10.37 W/m2
04:10 62.2 °F 59.8 °F 29.91 in Calm     92% 0 in WeatherDisplay:10.37 W/m2
04:15 62.2 °F 59.8 °F 29.91 in Calm     92% 0 in WeatherDisplay:10.37 W/m2
04:20 62.1 °F 59.7 °F 29.91 in Calm     92% 0 in WeatherDisplay:10.37 W/m2
04:25 62 °F 59.6 °F 29.91 in Calm     92% 0 in WeatherDisplay:10.37 W/m2
04:30 62 °F 59.6 °F 29.91 in Calm     92% 0 in WeatherDisplay:10.37 W/m2
04:35 62 °F 59.6 °F 29.91 in Calm     92% 0 in WeatherDisplay:10.37 W/m2
04:40 61.9 °F 59.9 °F 29.91 in Calm     93% 0 in WeatherDisplay:10.37 W/m2
04:45 62.1 °F 60 °F 29.91 in Calm   1 mph 93% 0 in WeatherDisplay:10.37 W/m2
04:50 62.5 °F 60.4 °F 29.91 in Calm   1 mph 93% 0 in WeatherDisplay:10.37 W/m2
04:55 62.8 °F 60.7 °F 29.91 in Calm     93% 0 in WeatherDisplay:10.37 W/m2
05:00 63 °F 60.6 °F 29.91 in Calm     92% 0 in WeatherDisplay:10.37 W/m2
05:05 63 °F 60.6 °F 29.91 in Calm     92% 0 in WeatherDisplay:10.37 W/m2
05:10 62.9 °F 60.5 °F 29.91 in Calm     92% 0 in WeatherDisplay:10.37 W/m2
05:15 62.9 °F 60.5 °F 29.91 in Calm     92% 0 in WeatherDisplay:10.37 W/m2
05:20 62.8 °F 60.4 °F 29.91 in Calm     92% 0 in WeatherDisplay:10.37 W/m2
05:25 62.8 °F 60.4 °F 29.91 in Calm     92% 0 in WeatherDisplay:10.37 W/m2
05:30 62.8 °F 60.4 °F 29.91 in Calm     92% 0 in WeatherDisplay:10.37 W/m2
05:35 62.8 °F 60.4 °F 29.91 in Calm     92% 0 in WeatherDisplay:10.37 W/m2
05:40 62.8 °F 60.4 °F 29.91 in Calm   1 mph 92% 0 in WeatherDisplay:10.37 W/m2
05:45 62.7 °F 60.4 °F 29.90 in Calm   1 mph 92% 0 in WeatherDisplay:10.37 W/m2
05:50 62.7 °F 60.3 °F 29.91 in Calm     92% 0 in WeatherDisplay:10.37 W/m2
05:55 62.7 °F 60.3 °F 29.90 in Calm   1 mph 92% 0 in WeatherDisplay:10.37 W/m2
06:00 62.7 °F 60.3 °F 29.91 in Calm     92% 0 in WeatherDisplay:10.37 W/m2
06:05 62.7 °F 60.3 °F 29.91 in Calm     92% 0 in WeatherDisplay:10.37 W/m2
06:10 62.7 °F 60.6 °F 29.91 in Calm   1 mph 93% 0 in WeatherDisplay:10.37 W/m2
06:15 62.7 °F 60.6 °F 29.91 in Calm   1 mph 93% 0 in WeatherDisplay:10.37 W/m2
06:20 62.7 °F 60.6 °F 29.91 in Calm   1 mph 93% 0 in WeatherDisplay:10.37 W/m2
06:25 62.7 °F 60.6 °F 29.91 in Calm   1 mph 93% 0 in WeatherDisplay:10.37 W/m2
06:30 62.8 °F 60.7 °F 29.90 in Calm     93% 0 in WeatherDisplay:10.37 W/m2
06:35 62.9 °F 60.8 °F 29.90 in Calm     93% 0 in WeatherDisplay:10.37 W/m2
06:40 62.9 °F 60.8 °F 29.90 in Calm     93% 0 in WeatherDisplay:10.37 W/m2
06:45 63 °F 60.9 °F 29.90 in Calm     93% 0 in WeatherDisplay:10.37 W/m2
06:50 63.1 °F 61 °F 29.90 in Calm     93% 0 in WeatherDisplay:10.37 W/m2
06:55 63.2 °F 61.1 °F 29.90 in Calm     93% 0 in WeatherDisplay:10.37 W/m2
07:00 63.4 °F 61.3 °F 29.90 in Calm     93% 0 in WeatherDisplay:10.37 W/m2
07:05 63.6 °F 61.5 °F 29.89 in Calm     93% 0 in WeatherDisplay:10.37 W/m2
07:10 63.8 °F 61.8 °F 29.89 in Calm     93% 0 in WeatherDisplay:10.37 W/m2
07:15 64.1 °F 62 °F 29.89 in Calm     93% 0 in WeatherDisplay:10.37 W/m2
07:20 64.3 °F 61.9 °F 29.89 in Calm     92% 0 in WeatherDisplay:10.37 W/m2
07:25 64.5 °F 62.1 °F 29.89 in Calm     92% 0 in WeatherDisplay:10.37 W/m2
07:30 64.7 °F 62.3 °F 29.89 in Calm     92% 0 in WeatherDisplay:10.37 W/m2
07:35 64.9 °F 62.3 °F 29.89 in Calm     91% 0 in WeatherDisplay:10.37 W/m2
07:40 65.3 °F 62.2 °F 29.89 in Calm     90% 0 in WeatherDisplay:10.37 W/m2
07:45 65.6 °F 62.6 °F 29.89 in Calm     90% 0 in WeatherDisplay:10.37 W/m2
07:50 65.9 °F 62.6 °F 29.89 in Calm     89% 0 in WeatherDisplay:10.37 W/m2
07:55 66.2 °F 62.5 °F 29.89 in Calm     88% 0 in WeatherDisplay:10.37 W/m2
08:00 66.4 °F 62.4 °F 29.89 in Calm   1 mph 87% 0 in WeatherDisplay:10.37 W/m2
08:05 66.7 °F 62.7 °F 29.89 in Calm     87% 0 in WeatherDisplay:10.37 W/m2
08:10 67 °F 62.7 °F 29.89 in Calm     86% 0 in WeatherDisplay:10.37 W/m2
08:15 67.3 °F 62.6 °F 29.89 in Calm     85% 0 in WeatherDisplay:10.37 W/m2
08:20 67.6 °F 62.9 °F 29.90 in Calm     85% 0 in WeatherDisplay:10.37 W/m2
08:25 67.9 °F 63.2 °F 29.89 in Calm     85% 0 in WeatherDisplay:10.37 W/m2
08:30 68.1 °F 63.1 °F 29.90 in Calm     84% 0 in WeatherDisplay:10.37 W/m2
08:35 68.4 °F 63 °F 29.90 in Calm     83% 0 in WeatherDisplay:10.37 W/m2
08:40 68.6 °F 62.9 °F 29.90 in Calm     82% 0 in WeatherDisplay:10.37 W/m2
08:45 68.8 °F 63.1 °F 29.90 in Calm     82% 0 in WeatherDisplay:10.37 W/m2
08:50 69 °F 64 °F 29.90 in Calm     84% 0 in WeatherDisplay:10.37 W/m2
08:55 68.8 °F 64.1 °F 29.91 in Calm     85% 0 in WeatherDisplay:10.37 W/m2
09:00 68.5 °F 63.5 °F 29.90 in Calm   2 mph 84% 0 in WeatherDisplay:10.37 W/m2
09:05 68.4 °F 63.7 °F 29.90 in Calm     85% 0 in WeatherDisplay:10.37 W/m2
09:10 68.3 °F 63.6 °F 29.89 in Calm     85% 0 in WeatherDisplay:10.37 W/m2
09:15 68.4 °F 64 °F 29.89 in Calm   1 mph 86% 0 in WeatherDisplay:10.37 W/m2
09:20 68.5 °F 64.1 °F 29.89 in Calm   3 mph 86% 0 in WeatherDisplay:10.37 W/m2
09:25 68.6 °F 64.2 °F 29.89 in SSW 2 mph 4 mph 86% 0 in WeatherDisplay:10.37 W/m2
09:30 68.8 °F 64.1 °F 29.89 in SSW 1 mph 3 mph 85% 0 in WeatherDisplay:10.37 W/m2
09:35 69.4 °F 65 °F 29.89 in SSW 3.5 mph 1.4 mph 86% 0 in WeatherDisplay:10.37 W/m2
09:40 69.8 °F 64.7 °F 29.89 in Calm   4 mph 84% 0 in WeatherDisplay:10.37 W/m2
09:45 70.3 °F 65.3 °F 29.88 in Calm   3 mph 84% 0 in WeatherDisplay:10.37 W/m2
09:50 70.9 °F 65.4 °F 29.88 in SSW 1 mph 3 mph 83% 0 in WeatherDisplay:10.37 W/m2
09:55 71.2 °F 65.8 °F 29.88 in SSW 2 mph 3 mph 83% 0 in WeatherDisplay:10.37 W/m2
10:00 71 °F 65.9 °F 29.91 in SSE 5 mph 9 mph 84% 0 in WeatherDisplay:10.37 W/m2
10:05 70.1 °F 65.4 °F 29.92 in East 6 mph 13 mph 85% 0.03 in WeatherDisplay:10.37 W/m2
10:10 68.7 °F 65 °F 29.92 in East 6 mph 10 mph 88% 0.17 in WeatherDisplay:10.37 W/m2
10:15 67.9 °F 65.2 °F 29.92 in East 1 mph 8 mph 91% 0 in WeatherDisplay:10.37 W/m2
10:20 67.7 °F 65 °F 29.92 in Calm   3 mph 91% 0.01 in WeatherDisplay:10.37 W/m2
10:25 67.6 °F 65.2 °F 29.92 in East 2 mph 5 mph 92% 0.01 in WeatherDisplay:10.37 W/m2
10:30 67.6 °F 65.5 °F 29.92 in Calm   2 mph 93% 0.01 in WeatherDisplay:10.37 W/m2
10:35 67.4 °F 65.3 °F 29.92 in Calm   1 mph 93% 0 in WeatherDisplay:10.37 W/m2
10:40 67.4 °F 65.3 °F 29.93 in Calm   1 mph 93% 0.02 in WeatherDisplay:10.37 W/m2
10:45 67.4 °F 65.3 °F 29.92 in SE 2 mph 4 mph 93% 0.18 in WeatherDisplay:10.37 W/m2
10:50 67.3 °F 65.5 °F 29.92 in SSW 1 mph 4 mph 94% 0.13 in WeatherDisplay:10.37 W/m2
10:55 67.2 °F 65.4 °F 29.93 in South 2 mph 3 mph 94% 0.07 in WeatherDisplay:10.37 W/m2
11:00 67.1 °F 65.3 °F 29.92 in Calm   4 mph 94% 0 in WeatherDisplay:10.37 W/m2
11:05 67.1 °F 65.3 °F 29.91 in Calm   3 mph 94% 0 in WeatherDisplay:10.37 W/m2
11:10 67 °F 65.5 °F 29.91 in Calm   3 mph 95% 0.01 in WeatherDisplay:10.37 W/m2
11:15 67 °F 65.5 °F 29.92 in Calm     95% 0.01 in WeatherDisplay:10.37 W/m2
11:20 67.1 °F 65.6 °F 29.93 in Calm   1 mph 95% 0 in WeatherDisplay:10.37 W/m2
11:25 67.2 °F 65.7 °F 29.93 in South 1 mph 2 mph 95% 0 in WeatherDisplay:10.37 W/m2
11:30 67.3 °F 65.8 °F 29.93 in South 1 mph 3 mph 95% 0 in WeatherDisplay:10.37 W/m2
11:35 67.3 °F 65.8 °F 29.93 in SSW 1 mph 3 mph 95% 0 in WeatherDisplay:10.37 W/m2
11:40 67.4 °F 65.9 °F 29.92 in SSW 1 mph 2 mph 95% 0 in WeatherDisplay:10.37 W/m2
11:45 67.5 °F 66 °F 29.92 in SW 1 mph 3 mph 95% 0 in WeatherDisplay:10.37 W/m2
11:50 67.5 °F 66.1 °F 29.92 in SW 1 mph 3 mph 95% 0 in WeatherDisplay:10.37 W/m2
11:55 67.7 °F 66.5 °F 29.92 in Calm   1 mph 96% 0 in WeatherDisplay:10.37 W/m2
12:00 67.7 °F 66.5 °F 29.92 in Calm   1 mph 96% 0 in WeatherDisplay:10.37 W/m2
12:05 67.9 °F 66.8 °F 29.91 in Calm   2 mph 96% 0 in WeatherDisplay:10.37 W/m2
12:10 68.2 °F 67 °F 29.91 in SW 1 mph 2 mph 96% 0 in WeatherDisplay:10.37 W/m2
12:15 68.4 °F 67.2 °F 29.91 in SW 1 mph 2 mph 96% 0 in WeatherDisplay:10.37 W/m2
12:20 68.8 °F 67.6 °F 29.91 in SW 2 mph 3 mph 96% 0 in WeatherDisplay:10.37 W/m2
12:25 68.9 °F 67.7 °F 29.91 in WSW 2 mph 4 mph 96% 0 in WeatherDisplay:10.37 W/m2
12:30 68.9 °F 67.7 °F 29.91 in WNW 1.2 mph 0.6 mph 96% 0 in WeatherDisplay:10.37 W/m2
12:35 69 °F 67.8 °F 29.91 in WNW 1 mph 4 mph 96% 0 in WeatherDisplay:10.37 W/m2
12:40 69.1 °F 67.9 °F 29.91 in WNW 2 mph 4 mph 96% 0 in WeatherDisplay:10.37 W/m2
12:45 69.2 °F 68 °F 29.91 in NW 1 mph 5 mph 96% 0 in WeatherDisplay:10.37 W/m2
12:50 69.3 °F 68.1 °F 29.91 in WNW 1 mph 3 mph 96% 0 in WeatherDisplay:10.37 W/m2
12:55 69.4 °F 68.2 °F 29.91 in WNW 1 mph 5 mph 96% 0 in WeatherDisplay:10.37 W/m2
13:00 69.5 °F 68.3 °F 29.91 in Calm   3 mph 96% 0 in WeatherDisplay:10.37 W/m2
13:05 69.8 °F 68.6 °F 29.91 in WNW 1 mph 3 mph 96% 0 in WeatherDisplay:10.37 W/m2
13:10 70.1 °F 68.9 °F 29.91 in WNW 1 mph 4 mph 96% 0 in WeatherDisplay:10.37 W/m2
13:15 70.1 °F 68.9 °F 29.91 in WNW 2 mph 5 mph 96% 0 in WeatherDisplay:10.37 W/m2
13:20 70.4 °F 69.2 °F 29.91 in WNW 3 mph 7 mph 96% 0 in WeatherDisplay:10.37 W/m2
13:25 70.8 °F 69.3 °F 29.91 in NW 3 mph 6 mph 95% 0 in WeatherDisplay:10.37 W/m2
13:30 71.3 °F 69.7 °F 29.91 in NW 2 mph 6 mph 95% 0 in WeatherDisplay:10.37 W/m2
13:35 71.7 °F 70.2 °F 29.90 in NW 3 mph 7 mph 95% 0 in WeatherDisplay:10.37 W/m2
13:40 72.6 °F 70.8 °F 29.91 in NW 3 mph 8 mph 94% 0 in WeatherDisplay:10.37 W/m2
13:45 73.3 °F 70.8 °F 29.90 in NW 3 mph 8 mph 92% 0 in WeatherDisplay:10.37 W/m2
13:50 74 °F 71.2 °F 29.90 in NW 5 mph 9 mph 91% 0 in WeatherDisplay:10.37 W/m2
13:55 74.7 °F 71.3 °F 29.90 in NW 5 mph 8 mph 89% 0 in WeatherDisplay:10.37 W/m2
14:00 75.1 °F 70.6 °F 29.90 in NW 2 mph 9 mph 86% 0 in WeatherDisplay:10.37 W/m2
14:05 76.1 °F 71.6 °F 29.90 in NNW 2 mph 6 mph 86% 0 in WeatherDisplay:10.37 W/m2
14:10 76.5 °F 70.9 °F 29.89 in NNW 3 mph 7 mph 83% 0 in WeatherDisplay:10.37 W/m2
14:15 76.2 °F 69.9 °F 29.90 in NNW 1 mph 7 mph 81% 0 in WeatherDisplay:10.37 W/m2
14:20 76.1 °F 69.8 °F 29.90 in NW 2 mph 7 mph 81% 0 in WeatherDisplay:10.37 W/m2
14:25 76.3 °F 70.4 °F 29.90 in North 3 mph 10 mph 82% 0 in WeatherDisplay:10.37 W/m2
14:30 76.3 °F 70.1 °F 29.90 in North 5 mph 14 mph 81% 0 in WeatherDisplay:10.37 W/m2
14:35 76.6 °F 70.7 °F 29.90 in NNW 3 mph 9 mph 82% 0 in WeatherDisplay:10.37 W/m2
14:40 76.6 °F 70.3 °F 29.90 in NNW 3 mph 9 mph 81% 0 in WeatherDisplay:10.37 W/m2
14:45 76.5 °F 70.6 °F 29.90 in NNE 2 mph 10 mph 82% 0 in WeatherDisplay:10.37 W/m2
14:50 76.7 °F 70.8 °F 29.90 in NE 5 mph 10 mph 82% 0 in WeatherDisplay:10.37 W/m2
14:55 77.2 °F 71.3 °F 29.90 in North 5 mph 10 mph 82% 0 in WeatherDisplay:10.37 W/m2
15:00 77.6 °F 71 °F 29.89 in NNE 6 mph 10 mph 80% 0 in WeatherDisplay:10.37 W/m2
15:05 78.2 °F 71.6 °F 29.89 in North 3 mph 8 mph 80% 0 in WeatherDisplay:10.37 W/m2
15:10 78.6 °F 71.9 °F 29.89 in NNW 3 mph 12 mph 80% 0 in WeatherDisplay:10.37 W/m2
15:15 78.5 °F 71.4 °F 29.89 in NNW 6 mph 13 mph 79% 0 in WeatherDisplay:10.37 W/m2
15:20 78.2 °F 71.1 °F 29.89 in NNW 7 mph 13 mph 79% 0 in WeatherDisplay:10.37 W/m2
15:25 77.5 °F 71.2 °F 29.89 in North 2 mph 10 mph 81% 0 in WeatherDisplay:10.37 W/m2
15:30 77.3 °F 71.4 °F 29.89 in WNW 11.5 mph 4.7 mph 82% 0 in WeatherDisplay:10.37 W/m2
15:35 77.1 °F 71.1 °F 29.89 in NNW 5 mph 12 mph 82% 0 in WeatherDisplay:10.37 W/m2
15:40 77 °F 71.4 °F 29.89 in NNW 6 mph 12 mph 83% 0 in WeatherDisplay:10.37 W/m2
15:45 77 °F 71.8 °F 29.89 in NNW 5 mph 9 mph 84% 0 in WeatherDisplay:10.37 W/m2
15:50 77.1 °F 71.9 °F 29.89 in NNE 2 mph 9 mph 84% 0 in WeatherDisplay:10.37 W/m2
15:55 77.5 °F 72 °F 29.89 in North 6 mph 10 mph 83% 0 in WeatherDisplay:10.37 W/m2
16:00 77.8 °F 71.8 °F 29.88 in NE 2 mph 11 mph 82% 0 in WeatherDisplay:10.37 W/m2
16:05 78.3 °F 71.6 °F 29.88 in NNE 5 mph 9 mph 80% 0 in WeatherDisplay:10.37 W/m2
16:10 79 °F 72.6 °F 29.88 in NW 2 mph 8 mph 81% 0 in WeatherDisplay:10.37 W/m2
16:15 79.3 °F 72.3 °F 29.87 in NNW 2 mph 12 mph 79% 0 in WeatherDisplay:10.37 W/m2
16:20 79.5 °F 71.7 °F 29.87 in NNW 5 mph 15 mph 77% 0 in WeatherDisplay:10.37 W/m2
16:25 79.5 °F 70.9 °F 29.87 in NNW 15 mph 6.3 mph 75% 0 in WeatherDisplay:10.37 W/m2
16:30 79.7 °F 70.7 °F 29.86 in North 8 mph 17 mph 74% 0 in WeatherDisplay:10.37 W/m2
16:35 79.5 °F 70.9 °F 29.87 in NNE 3 mph 12 mph 75% 0 in WeatherDisplay:10.37 W/m2
16:40 79.5 °F 70.9 °F 29.87 in NNE 6 mph 18 mph 75% 0 in WeatherDisplay:10.37 W/m2
16:45 79.6 °F 71.4 °F 29.87 in NNE 3 mph 16 mph 76% 0 in WeatherDisplay:10.37 W/m2
16:50 79.4 °F 71.2 °F 29.88 in North 6 mph 13 mph 76% 0 in WeatherDisplay:10.37 W/m2
16:55 79.2 °F 71.4 °F 29.88 in North 5 mph 9 mph 77% 0 in WeatherDisplay:10.37 W/m2
17:00 79 °F 70.4 °F 29.88 in NNE 7 mph 15 mph 75% 0 in WeatherDisplay:10.37 W/m2
17:05 78.9 °F 70.7 °F 29.88 in North 6 mph 12 mph 76% 0 in WeatherDisplay:10.37 W/m2
17:10 79 °F 70 °F 29.88 in NE 5 mph 9 mph 74% 0 in WeatherDisplay:10.37 W/m2
17:15 79.1 °F 70.1 °F 29.88 in NNE 8 mph 14 mph 74% 0 in WeatherDisplay:10.37 W/m2
17:20 79.3 °F 70.3 °F 29.88 in North 2 mph 14 mph 74% 0 in WeatherDisplay:10.37 W/m2
17:25 79.4 °F 70 °F 29.88 in NE 7 mph 12 mph 73% 0 in WeatherDisplay:10.37 W/m2
17:30 79.4 °F 70 °F 29.88 in North 3 mph 10 mph 73% 0 in WeatherDisplay:10.37 W/m2
17:35 79.5 °F 70.5 °F 29.88 in NNE 3 mph 12 mph 74% 0 in WeatherDisplay:10.37 W/m2
17:40 79.4 °F 69.6 °F 29.88 in NNW 3 mph 14 mph 72% 0 in WeatherDisplay:10.37 W/m2
17:45 79.4 °F 70.4 °F 29.88 in NNW 3 mph 8 mph 74% 0 in WeatherDisplay:10.37 W/m2
17:50 79.4 °F 70.8 °F 29.88 in NNE 5 mph 12 mph 75% 0 in WeatherDisplay:10.37 W/m2
17:55 79.4 °F 70.4 °F 29.88 in NNE 2 mph 12 mph 74% 0 in WeatherDisplay:10.37 W/m2
18:00 79.4 °F 70 °F 29.88 in NNE 3 mph 13 mph 73% 0 in WeatherDisplay:10.37 W/m2
18:05 79.4 °F 70 °F 29.88 in NNW 2 mph 8 mph 73% 0 in WeatherDisplay:10.37 W/m2
18:10 79.3 °F 69.9 °F 29.88 in NNE 4.6 mph 2.5 mph 73% 0 in WeatherDisplay:10.37 W/m2
18:15 79.4 °F 70 °F 29.88 in North 3 mph 8 mph 73% 0 in WeatherDisplay:10.37 W/m2
18:20 79.5 °F 69.7 °F 29.88 in NNW 3 mph 9 mph 72% 0 in WeatherDisplay:10.37 W/m2
18:25 79.4 °F 70.4 °F 29.88 in NW 3 mph 10 mph 74% 0 in WeatherDisplay:10.37 W/m2
18:30 78.9 °F 70.3 °F 29.88 in NW 3 mph 12 mph 75% 0 in WeatherDisplay:10.37 W/m2
18:35 78.5 °F 70.7 °F 29.88 in NNW 3 mph 12 mph 77% 0 in WeatherDisplay:10.37 W/m2
18:40 78.1 °F 70.3 °F 29.88 in NW 5 mph 8 mph 77% 0 in WeatherDisplay:10.37 W/m2
18:45 77.9 °F 70.4 °F 29.88 in NNW 2 mph 7 mph 78% 0 in WeatherDisplay:10.37 W/m2
18:50 77.6 °F 70.6 °F 29.88 in NE 2.3 mph 1.4 mph 79% 0 in WeatherDisplay:10.37 W/m2
18:55 77.6 °F 70.5 °F 29.88 in NNE 1 mph 5 mph 79% 0 in WeatherDisplay:10.37 W/m2
19:00 77.5 °F 70.5 °F 29.88 in NW 2 mph 7 mph 79% 0 in WeatherDisplay:10.37 W/m2
19:05 77.4 °F 70.4 °F 29.88 in NNW 3 mph 8 mph 79% 0 in WeatherDisplay:10.37 W/m2
19:10 77 °F 70.4 °F 29.88 in North 3 mph 12 mph 80% 0 in WeatherDisplay:10.37 W/m2
19:15 76.7 °F 70.4 °F 29.87 in NNW 3 mph 9 mph 81% 0 in WeatherDisplay:10.37 W/m2
19:20 76.5 °F 70.6 °F 29.87 in NNW 3 mph 8 mph 82% 0 in WeatherDisplay:10.37 W/m2
19:25 76.4 °F 70.9 °F 29.88 in NW 3 mph 8 mph 83% 0 in WeatherDisplay:10.37 W/m2
19:30 76.3 °F 70.8 °F 29.88 in NW 5 mph 1.4 mph 83% 0 in WeatherDisplay:10.37 W/m2
19:35 76.2 °F 70.7 °F 29.88 in NNW 2 mph 9 mph 83% 0 in WeatherDisplay:10.37 W/m2
19:40 76.1 °F 70.2 °F 29.88 in NNW 3 mph 12 mph 82% 0 in WeatherDisplay:10.37 W/m2
19:45 75.9 °F 70.4 °F 29.88 in NNW 2 mph 7 mph 83% 0 in WeatherDisplay:10.37 W/m2
19:50 75.8 °F 70.3 °F 29.88 in NNW 5 mph 11 mph 83% 0 in WeatherDisplay:10.37 W/m2
19:55 75.5 °F 70 °F 29.88 in NNW 3 mph 6 mph 83% 0 in WeatherDisplay:10.37 W/m2
20:00 75.4 °F 69.8 °F 29.88 in NW 3 mph 7 mph 83% 0 in WeatherDisplay:10.37 W/m2
20:05 75.2 °F 69.7 °F 29.88 in NW 2 mph 7 mph 83% 0 in WeatherDisplay:10.37 W/m2
20:10 75 °F 69.8 °F 29.88 in NNW 2 mph 8 mph 84% 0 in WeatherDisplay:10.37 W/m2
20:15 74.8 °F 69.7 °F 29.88 in North 2 mph 5 mph 84% 0 in WeatherDisplay:10.37 W/m2
20:20 74.7 °F 69.5 °F 29.88 in NNW 2 mph 6 mph 84% 0 in WeatherDisplay:10.37 W/m2
20:25 74.5 °F 69.3 °F 29.88 in East 4.6 mph 2.5 mph 84% 0 in WeatherDisplay:10.37 W/m2
20:30 74.4 °F 69.6 °F 29.88 in NW 1 mph 5 mph 85% 0 in WeatherDisplay:10.37 W/m2
20:35 74.3 °F 69.5 °F 29.88 in NW 2 mph 7 mph 85% 0 in WeatherDisplay:10.37 W/m2
20:40 74.2 °F 69.4 °F 29.88 in NNW 2 mph 6 mph 85% 0 in WeatherDisplay:10.37 W/m2
20:45 74.2 °F 69.4 °F 29.88 in North 2 mph 4 mph 85% 0 in WeatherDisplay:10.37 W/m2
20:50 74 °F 69.6 °F 29.88 in NNW 2 mph 5 mph 86% 0 in WeatherDisplay:10.37 W/m2
west seneca weather
Compliments of Weather Underground - 2 mb